Terminal Aerodrome Forecast
Issued by NWS

Home | Current Version | Previous Version | Text Only | Print | Product List | Glossary On
Versions: 1 2 3 4 5 6 7 8 9 10 11 12
000
FTUS43 KMQT 051125
TAFCMX
TAF
KCMX 051125Z 0512/0612 21009KT P6SM SCT250
     FM060200 20007KT P6SM BKN120 WS010/21030KT
     FM060900 20007KT P6SM VCSH BKN080=

USA.gov is the U.S. government's official web portal to all federal, state and local government web resources and services.